Kcmh metar.

KCMH METAR Weather: KCMH 180751Z 27008KT 10SM BKN031 OVC040 13/09 A2998 RMK AO2 SLP148 T01330094 $ KCMH Flight Activity (FlightAware) KCMH Airport Info (iFlightPlanner) KCMH Del/Gnd/Twr: Feed Status: UP Listeners: 1 (in browser, HTML5) (launches your MP3 player) KCMH Del/Gnd/Twr Audio Archives: Facility:

Kcmh metar. Things To Know About Kcmh metar.

AWC - Aviation Weather CenterMETAR KCMH 190651Z 13008KT 10SM FEW080 FEW110 OVC200 18/07 A2983 RMK AO2 SLP097 T01830072. The wind is from direction 130° with a speed of 8 kt. Visibility is 10 mi. The ceiling, broken or more, is 20,000 ft. The temperature and wind chill are 18 °C.KCMH - John Glenn Columbus International Airport (12 nm SW) 4I3 - Knox County Airport (14 nm NE) KVTA - Newark-Heath Airport ... METAR; KCMH 12nm SW : 230951Z 19007KT 10SM BKN170 09/00 A3004 RMK AO2 SLP174 T00890000 $ K4I3 14nm NE : 230955Z AUTO 19004KT 10SM CLR 08/00 A3004 RMK AO2 KVTAAWC - Aviation Weather Center

METAR KSAN 280351Z 31004KT 10SM FEW016 FEW027 16/12 A3004 RMK AO2 SLP171 T01610122 $. 19:51. V. 16 °C. 10 mi. -. 310°. 5 kt. METAR KSAN 280251Z 31005KT 10SM FEW027 16/12 A3002 RMK AO2 SLP167 T01610122 53006 $.1. Mountain waves always develop in a series on the upwind (windward) side of mountain ridges. 2. In a mountain wave, the air dips sharply downward immediately to the lee side of a ridge, before rising and falling in a wave motion for a considerable distance downstream. 3.

METAR KCMH 171628Z 21018G26KT 10SM BKN029 OVC090 21/16 A2984 RMK AO2 PK WND 21026/1623 T02110156 $. The wind is from direction 210° with a speed of 18 kt. Visibility is 10 mi. The ceiling, broken or more, is 2,900 ft. The temperature and wind chill are 21 °C.METAR KCMH 180951Z 28006KT 10SM OVC032 13/08 A3000 RMK AO2 SLP157 T01280083 $. The wind is from direction 280° with a speed of 6 kt. Visibility is 10 mi. The ceiling, broken or more, is 3,200 ft. The temperature and wind chill are 13 °C.

The Columbus Airport Holiday Inn Express offers a daily breakfast with assorted hot and cold items and fresh coffee. This hotel is just 1.4 miles from the Airport Golf Course and Kelton House Museum and Garden is 9.8 miles away. The Columbus Zoo is a 30-minute drive from the hotel. Hotel.AWC - Aviation Weather CenterAWC - Aviation Weather Center provides current and historical METARs and TAFs for KFCM station, located in Eden Prairie/Flying, MN, US. You can access the decoded or raw data, as well as the plot and board information, for the past 36 hours.METAR KCMH 291107Z 32009KT 10SM OVC015 02/M01 A3011 RMK AO2 T00171006 VISNO NW $. O vento é da direção 320° com uma velocidade de 9 kt. Visibilidade é 10 mi. O teto, quebrado ou mais, é 1.500 ft. A temperatura é 2 °C, com um arrefecimento pelo vento de -4 °C.

Dangerous places in detroit

Don't get trapped in a digital silo. Google might be stunting your online experience. Today, 75% of desktop and laptop searches pass through the world’s most popular search engine....

METAR TAF : Current weather observation and Forecast, Columbus John Glenn Columbus International Airport Ohio United States. Satellite images. 10-day forecasts. ... METAR: KCMH 231751Z 36017G21KT 10SM BKN035 04/M05 A3016 RMK AO2 SLP218 T00441050 10050 21006 51014 Time: 14:06 (18:06 UTC)kcmh. cmh atis info o 0851z. 02004kt 10sm few250 16/13 a2999 (two niner niner niner). ils, rwy 28l, ils, rwy 28r, simul apch in use. notams... twy c5, c6 clsd twy d5 clsd btwn twy d and twy c . twy c clsd btwn twy c4 and twy c6 ., taxiway charlie 7 charlie 8 and charlie 9 clsd to aircraft with wingspans greater than 118 feet.METAR KCMH 180251Z 29006KT 10SM FEW060 15/11 A2991 RMK AO2 SLP126 T01500106 51034 $. The wind is from direction 290° with a speed of 6 kt. Visibility is 10 mi. No ceiling has been observed. The temperature and wind chill are 15 °C.HEMS Tool is now GFA-LA — all of the same features and more. Radar, satellite, METARs, and other current data on the observation map. Text Data Server has been replaced by the Data API. Raw and decoded METAR and TAF data. Public hourly forecasts are available through Weather.gov. More information. How can the Aviation Weather Center help you?AWC - Aviation Weather CenterMETAR KCMH 170851Z 19008KT 10SM FEW080 FEW095 SCT110 OVC150 22/12 A2989 RMK AO2 SLP114 T02220117 53002. The wind is from direction 190° with a speed of 8 kt. Visibility is 10 mi. The ceiling, broken or more, is 15,000 ft. The temperature and wind chill are 22 °C.

METAR KCMH 170551Z 16009KT 10SM FEW065 FEW100 OVC160 22/12 A2988 RMK AO2 RAB22E32 SLP112 P0000 60000 T02220122 10272 20217 56023. The wind is from direction 160° with a speed of 9 kt. Visibility is 10 mi. The ceiling, broken or more, is 16,000 ft. The temperature and wind chill are 22 °C.The aim of Zebra Labs is to "create intellectual property that's deeply integrated with content" and "run virtual idols like celebrities." In June, Chinese pop-punk singer Wowkie Z...Aviation Weather CenterMETAR KCMH 160851Z 16003KT 10SM BKN190 17/13 A2979 RMK AO2 SLP082 T01670128 58016. The wind is from direction 160° with a speed of 3 kt. Visibility is 10 mi. The ceiling, broken or more, is 19,000 ft. The temperature and wind chill are 17 °C. National Heliport OI96 · Ohio, United States.Calculated from historical METAR data of John Glenn Columbus International Airport (KCMH) between 2019 and 2022. Remove ads. Remove ads. VFR conditions Temperature Precipitation Wind. VFR conditions (%) Month: Average 2022 2021 2020 2019 ; January: 55.3: 62 : 49 ...ICAO: KCMH IATA: CMH Airport: Port Columbus International Airport City: Columbus State/Province: Ohio Country: United States Continent: North America KCMH METAR Weather: KCMH 011651Z 20012G21KT 10SM SCT090 BKN250 25/12 A2995 RMK AO2 SLP140 T02500122 KCMH ADS-B Flight Tracking (ADSBExchange): KCMH Flight …

Aviation weather on your website. Do you want a fancy box with the actual weather on your website? Paste this HTML in the source of your website:

METAR KCMH 180851Z 28009KT 10SM OVC034 13/08 A2999 RMK AO2 SLP152 T01330083 53013 $. The wind is from direction 280° with a speed of 9 kt. Visibility is 10 mi. The ceiling, broken or more, is 3,400 ft. The temperature and wind chill are 13 °C.METAR KCMH 031551Z 18005KT 10SM CLR 27/17 A3022 RMK AO2 SLP229 T02670167. The wind is from direction 180° with a speed of 5 kt. Visibility is 10 mi. ... KOSU - Ohio State University Airport (9.7 NM) METAR KLCK - Rickenbacker International Airport (11 NM) METAR TAF KTZR - Bolton Field (13 NM) METAR KLHQ - Fairfield County (18 NM) METAR. 3 ...KCMH METAR Weather: KCMH 301551Z 23005KT 10SM SCT020 OVC028 18/14 A2995 RMK AO2 SLP140 T01830144 KCMH Flight Activity (FlightAware) KCMH Webcam: KCMH Airport Info (iFlightPlanner) KCMH Twr/App/Dep: Feed Status: UP Listeners: 2 (in browser, HTML5) (launches your MP3 player) KCMH Twr/App/Dep Audio Archives:AWC - Aviation Weather CenterMETAR Hartsfield-Jackson Atlanta International - KATL/ATL. Hartsfield-Jackson Atlanta International is a large airport in Georgia, United States. The airport is located at latitude 33.63662 and longitude -84.42802. The airport has 5 runways: 9L/27R, 8R/26L, 8L/26R, 9R/27L and 10/28.AWC - Aviation Weather CenterKBWI. BWI ATIS INFO G 1154Z. 28003KT 10SM FEW070 SCT250 19/16 A2998 (TWO NINER NINER EIGHT) RMK AO2 SLP150 10189 20133 53008. ARR ACFT EXP VISUAL APCH RWY 33L, RWY 33R. DEPG RWYS 28, 33R.METAR Houghton County Memorial Airport - KCMX/CMX . Houghton County Memorial Airport is a midsized airport in Michigan, United States. The airport is located at latitude 47.16829 and longitude -88.48908. The airport has 2 runways: 14/32 and 7/25. The ICAO airport code of this field is KCMX.Port Columbus International Airport (CMH) Columbus, Ohio, United States (US) Large airport. +1 (614) 239 4000 Visit official website. METAR.

Taylor grenda age

METAR KCMH 020851Z 00000KT 10SM CLR 16/15 A3026 RMK AO2 SLP243 T01560150 50001. There is little or no wind from a variable direction. Visibility is 10 mi. ... (9.7 NM) METAR KLCK - Rickenbacker International Airport (11 NM) METAR TAF KTZR - Bolton Field (13 NM) METAR KLHQ - Fairfield County (18 NM) METAR. 2 October 04:51 LT 3d

Apr 17, 2024 · METAR KCMH 171551Z 20016G23KT 10SM FEW022 SCT036 SCT090 BKN250 21/16 A2985 RMK AO2 SLP104 T02060161 $. The wind is from direction 200° with a speed of 16 kt. Visibility is 10 mi. The ceiling, broken or more, is 25,000 ft. The temperature and wind chill are 21 °C. AWC - Aviation Weather CenterAWC - Aviation Weather CenterMETAR KCMH 021451Z 00000KT 10SM CLR 23/17 A3028 RMK AO2 SLP247 T02330172 51002. There is little or no wind from a variable direction. Visibility is 10 mi. ... (9.7 NM) METAR KLCK - Rickenbacker International Airport (11 NM) METAR TAF KTZR - Bolton Field (13 NM) METAR KLHQ - Fairfield County (18 NM) METAR. 2 October 10:51 …AWC - Aviation Weather CenterI don’t care how many Hitman games IO Interactive cranks out, I’ll play every single one of them, even though all of them involve doing the exact same thing: poring over sprawling ...METAR KCMH 182251Z 16004KT 10SM FEW150 BKN250 22/09 A3000 RMK AO2 SLP157 T02170089. The wind is from direction 160° with a speed of 4 kt. Visibility is 10 mi. The ceiling, broken or more, is 25,000 ft. The temperature and wind chill are 22 °C.METAR KCMH 172351Z 31006KT 10SM FEW050 SCT200 19/16 A2981 RMK AO2 LTG DSNT SE AND S SLP090 CB DSNT SE-S 60073 T01890156 10261 20150 51036 $. The wind is from direction 310° with a speed of 6 kt. Visibility is 10 mi. No ceiling has been observed. The temperature and wind chill are 19 °C.METAR archive KCMH · John Glenn Columbus International Airport 2023. Click on the button below to download all raw METAR data of John Glenn Columbus International Airport (KCMH) in 2023. The download will consist of a CSV file with 3 columns: airport_id, date and the raw METAR.

METAR KCMH 181251Z 29012KT 10SM FEW032 14/08 A3008 RMK AO2 SLP184 T01440083. The wind is from direction 290° with a speed of 12 kt. Visibility is 10 mi. No ceiling has been observed. The temperature and wind chill are 14 °C. John Glenn Columbus International Airport KCMH · Ohio, United States.Detailed Forecast. Overnight. A chance of showers, with thunderstorms also possible after 5am. Mostly cloudy, with a low around 63. South wind around 8 mph. Chance of precipitation is 30%. New rainfall amounts between a tenth and quarter of an inch, except higher amounts possible in thunderstorms. Wednesday.METAR KCMH 180551Z 28007KT 10SM OVC049 16/11 A2995 RMK AO2 SLP138 T01560106 10194 20139 53014 $. The wind is from direction 280° with a speed of 7 kt. Visibility is 10 mi. The ceiling, broken or more, is 4,900 ft. The temperature and wind chill are 16 °C.METAR KCMH 022051Z 12003KT 10SM CLR 29/15 A3019 RMK AO2 SLP216 T02940150 56018. The wind is from direction 120° with a speed of 3 kt. Visibility is 10 mi. ... (9.7 NM) METAR KLCK - Rickenbacker International Airport (11 NM) METAR TAF KTZR - Bolton Field (13 NM) METAR KLHQ - Fairfield County (18 NM) METAR. 2 October 16:51 …Instagram:https://instagram. mkiii hunter METAR KCMH 172109Z 20018G35KT 10SM VCTS BKN055 BKN070 OVC090 24/14 A2970 RMK AO2 PK WND 21035/2100 LTG DSNT W-NE T02440139 $. Current weather is in the vicinity thunderstorms .The wind is from direction 200° with a speed of 18 kt. Visibility is 10 mi. The ceiling, broken or more, is 5,500 ft. The temperature and wind chill are 24 °C.Financial Assistance. At Kiowa County Memorial Hospital, we understand that managing healthcare costs can be challenging. That's why we offer Financial Assistance programs to support you in paying for your care. If you're facing financial difficulties, explore the options available and apply for assistance. Your well-being is our priority. costco roseville ca gas METAR KCMH 271151Z 32009KT 10SM CLR 03/M03 A3027 RMK AO2 SLP254 T00281033 10050 20022 53011. The wind is from direction 320° with a speed of 9 kt. Visibility is 10 mi. No ceiling has been observed. The temperature is …METAR and TAF Weather Reports. BECMG - Becoming…. BECMG 0002 = becoming 00 to 02 Zulu. FM - From…. FM0200 = from 0200 Zulu. TEMPO - Temporarily…. TEMPO 0002 = Temporarily 00 to 02 Zulu. 4/SSS - Snow depth in inches. 4/021 = 21 inches on ground. 5aPPP - 3-hourly pressure tendency. wic office lancaster METAR KCMH 181451Z 00000KT 10SM FEW034 FEW250 16/09 A3009 RMK AO2 SLP188 T01610089 51015. There is little or no wind from a variable direction. Visibility is 10 mi. No ceiling has been observed. The temperature and wind chill are 16 °C.航空気象センターのMETARは、世界中の空港の気象報告を提供するサービスです。METARは、風、視程、雲、降水、凍結、悪天候などの航空関連の気象変数をテキストやグラフィックで表示します。METARは、航空機の飛行計画や安全性に役立つ重要な情報源です。 meijer optical west lafayette indiana KCMH METAR TAF AREA METARS AREA TAFS KCMH. UTC. John Glenn Columbus International Airport Columbus, Ohio, United States. METAR - Current. KCMH 030751Z COR 12004KT ... curry hollow road accident METAR KCMH 190751Z 24008KT 10SM BKN090 OVC120 18/08 A2986 RMK AO2 SLP107 T01780083. The wind is from direction 240° with a speed of 8 kt. Visibility is 10 mi. The ceiling, broken or more, is 9,000 ft. The temperature and wind chill are 18 °C.METAR KCMH 172134Z 32020G34KT 3SM R28L/5000VP6000FT -TSRA BKN055CB BKN090 OVC110 18/14 A2974 RMK AO2 PK WND 21035/2124 WSHFT 2120 LTG DSNT ALQDS RAB29 TSB26 FRQ LTGCCCG TS W-N MOV E P0000 T01830139 $. Current weather is light thunderstorms rain.The wind is from direction 320° with a speed of 20 kt. … bmv in dale indiana AWC - Aviation Weather Center gta 5 cool crew colors The aim of Zebra Labs is to "create intellectual property that's deeply integrated with content" and "run virtual idols like celebrities." In June, Chinese pop-punk singer Wowkie Z...METAR KCMH 031951Z 15005KT 10SM FEW065 30/16 A3014 RMK AO2 SLP200 T03000156. The wind is from direction 150° with a speed of 5 kt. Visibility is 10 … mangoloo cosplays METAR is a format for reporting weather information. A METAR weather report is predominantly used by aircraft pilots, and by meteorologists, who use aggregated METAR information to assist in weather forecasting.Today, according to the advancement of technology in civil aviation, the METAR is sent as IWXXM model.. Raw METAR is the most common format in the world for the transmission of ... Station Type Date Time Source; KCMH: Decoded METAR: 2023/12/01: 17:36 UTC: NOAA: PORT COLUMBUS INTERNATIONAL AIRPORT, OH, United States (KCMH) 40-00N 82-53W 247M food lion distribution center in salisbury north carolina KCMH METAR Weather: KCMH 070451Z 00000KT 10SM CLR 03/00 A3014 RMK AO2 SLP208 T00280000 401220006 $ KCMH Flight Activity (FlightAware) KCMH Airport Info (iFlightPlanner) KCMH App/Dep (120.2) Feed Status: UP Listeners: 0 (in browser, HTML5) (launches your MP3 player)KCMH: Decoded METAR: 2024/04/28: 06:51 UTC: NOAA: PORT COLUMBUS INTERNATIONAL AIRPORT, OH, United States (KCMH) 40-00N 82-53W 247M Apr 28, … bar rescue jack's firehouse KCMH METAR Weather: KCMH 182351Z 15006KT 10SM FEW150 BKN250 21/08 A2999 RMK AO2 SLP152 T02110083 10228 20200 58011 KCMH Flight Activity (FlightAware) KCMH Webcam: KCMH Airport Info (iFlightPlanner) KCMH App/Dep (125.95) Feed Status: UP Listeners: 0 (in browser, HTML5) mexican honea path ICAO: KCMH IATA: CMH Airport: Port Columbus International Airport City: Columbus State/Province: Ohio Country: United States Continent: North America KCMH METAR Weather: KCMH 011651Z 20012G21KT 10SM SCT090 BKN250 25/12 A2995 RMK AO2 SLP140 T02500122 KCMH ADS-B Flight Tracking (ADSBExchange): KCMH Flight …KPHX. PHX ATIS INFO R 1351Z. 09006KT 10SM CLR 21/02 A2989 (TWO NINER EIGHT NINER) RMK AO2 SLP108 T02060022. EXPECT VISUAL APCH RWY 8, VISUAL APCH RWY 7R. DEPARTING RWY 7L.